Time;durP1;ratioP1;P1;durP2;ratioP2;P2;SDS_P1;SDS_P2;PMS_P1;PMS_P2;Temp;Humidity;BMP_temperature;BMP_pressure;BME280_temperature;BME280_humidity;BME280_pressure;Samples;Min_cycle;Max_cycle;Signal;HPM_P1;HPM_P2
2021/06/09 00:02:13;;;;;;;5.40;4.47;;;17.40;99.90;;;;;;5863410;23;20583;-66
2021/06/09 00:04:38;;;;;;;5.50;4.90;;;17.40;99.90;;;;;;5856573;23;20207;-66
2021/06/09 00:07:04;;;;;;;4.40;4.00;;;17.30;99.90;;;;;;5904282;23;20160;-66
2021/06/09 00:09:29;;;;;;;6.23;3.87;;;17.20;1.00;;;;;;5863244;23;21058;-66
2021/06/09 00:11:55;;;;;;;4.23;3.80;;;17.20;1.00;;;;;;5863670;23;20167;-66
2021/06/09 00:14:21;;;;;;;4.20;3.80;;;17.10;1.00;;;;;;5847606;23;20216;-66
2021/06/09 00:16:46;;;;;;;4.70;4.00;;;17.20;1.00;;;;;;5844143;23;20634;-66
2021/06/09 00:19:13;;;;;;;3.93;3.53;;;17.20;1.00;;;;;;5867181;23;20495;-66
2021/06/09 00:21:40;;;;;;;4.30;3.83;;;17.20;1.00;;;;;;5833442;23;20548;-66
2021/06/09 00:24:07;;;;;;;4.90;4.23;;;17.10;1.00;;;;;;5838054;23;20396;-66
2021/06/09 00:26:32;;;;;;;4.80;4.00;;;17.00;1.00;;;;;;5834038;23;20403;-66
2021/06/09 00:28:59;;;;;;;4.00;3.70;;;16.90;1.00;;;;;;5868109;23;20384;-66
2021/06/09 00:31:24;;;;;;;3.60;3.30;;;17.00;1.00;;;;;;5844379;23;20168;-66
2021/06/09 00:33:50;;;;;;;3.80;3.50;;;16.90;1.00;;;;;;5873737;23;20419;-66
2021/06/09 00:36:16;;;;;;;3.57;3.27;;;16.90;1.00;;;;;;5828250;23;20466;-66
2021/06/09 00:38:41;;;;;;;3.97;3.67;;;16.90;1.00;;;;;;5829560;23;20580;-66
2021/06/09 00:41:09;;;;;;;3.93;3.53;;;16.90;1.00;;;;;;5823551;23;20572;-66
2021/06/09 00:43:34;;;;;;;4.70;4.10;;;16.80;1.00;;;;;;5864157;23;20184;-66
2021/06/09 00:46:05;;;;;;;3.97;3.67;;;16.70;1.00;;;;;;5825508;23;20691;-66
2021/06/09 00:48:32;;;;;;;4.67;4.23;;;16.80;1.00;;;;;;5839548;23;20161;-66
2021/06/09 00:51:01;;;;;;;6.43;3.53;;;16.80;1.00;;;;;;5884859;23;20868;-66
2021/06/09 00:53:38;;;;;;;4.30;3.90;;;16.70;1.00;;;;;;5870243;23;20388;-66
2021/06/09 00:56:12;;;;;;;5.55;4.30;;;16.70;1.00;;;;;;5845921;23;20825;-66
2021/06/09 00:58:39;;;;;;;4.60;4.17;;;16.70;1.00;;;;;;5877653;23;20199;-66
2021/06/09 01:01:06;;;;;;;5.33;3.80;;;16.70;1.00;;;;;;5878589;23;20804;-66
2021/06/09 01:03:33;;;;;;;3.70;3.40;;;16.60;1.00;;;;;;5840125;23;20427;-66
2021/06/09 01:05:59;;;;;;;4.47;3.70;;;16.60;1.00;;;;;;5844172;23;20736;-66
2021/06/09 01:08:24;;;;;;;6.20;3.40;;;16.60;1.00;;;;;;5843097;23;20835;-66
2021/06/09 01:10:51;;;;;;;4.17;3.63;;;16.70;1.00;;;;;;5859974;23;21197;-66
2021/06/09 01:13:20;;;;;;;3.50;3.20;;;16.60;1.00;;;;;;5878466;23;20713;-66
2021/06/09 01:15:46;;;;;;;11.13;3.73;;;16.60;1.00;;;;;;5876291;23;20239;-66
2021/06/09 01:18:12;;;;;;;2.90;2.60;;;16.50;1.00;;;;;;5872510;23;20384;-66
2021/06/09 01:20:37;;;;;;;3.20;2.90;;;16.40;1.00;;;;;;5877223;23;20416;-66
2021/06/09 01:23:04;;;;;;;3.93;2.80;;;16.40;1.00;;;;;;5871736;23;20981;-66
2021/06/09 01:25:30;;;;;;;4.05;3.10;;;16.50;1.00;;;;;;5838290;23;20165;-66
2021/06/09 01:27:56;;;;;;;4.07;3.45;;;16.50;1.00;;;;;;5835761;23;20192;-66
2021/06/09 01:30:22;;;;;;;3.00;2.80;;;16.40;1.00;;;;;;5839595;23;20161;-66
2021/06/09 01:32:50;;;;;;;3.40;3.10;;;16.50;1.00;;;;;;5835916;23;20537;-66
2021/06/09 01:35:16;;;;;;;3.97;3.20;;;16.50;1.00;;;;;;5824397;23;20438;-67
2021/06/09 01:37:42;;;;;;;4.40;3.30;;;16.40;1.00;;;;;;5830278;23;20601;-67
2021/06/09 01:40:11;;;;;;;3.57;3.27;;;16.40;1.00;;;;;;5862674;23;20821;-66
2021/06/09 01:42:37;;;;;;;3.80;2.80;;;16.40;1.00;;;;;;5835691;23;21493;-66
2021/06/09 01:45:05;;;;;;;3.83;3.33;;;16.50;1.00;;;;;;5853137;23;20176;-66
2021/06/09 01:47:31;;;;;;;3.30;2.85;;;16.50;1.00;;;;;;5885654;23;20414;-66
2021/06/09 01:49:56;;;;;;;3.80;2.97;;;16.50;1.00;;;;;;5882509;23;20538;-66
2021/06/09 01:52:22;;;;;;;3.50;3.20;;;16.40;1.00;;;;;;5844699;23;20601;-66
2021/06/09 01:54:47;;;;;;;2.93;2.73;;;16.30;1.00;;;;;;5859637;23;20195;-66
2021/06/09 01:57:15;;;;;;;3.60;2.70;;;16.40;1.00;;;;;;5859310;23;20683;-66
2021/06/09 01:59:42;;;;;;;3.80;3.35;;;16.20;1.00;;;;;;5872887;23;20836;-66
2021/06/09 02:02:09;;;;;;;2.50;2.30;;;16.40;1.00;;;;;;5871600;23;20207;-66
2021/06/09 02:04:35;;;;;;;3.00;2.70;;;16.40;1.00;;;;;;5875979;23;20494;-66
2021/06/09 02:07:01;;;;;;;3.17;2.87;;;16.30;1.00;;;;;;5869222;23;20788;-66
2021/06/09 02:09:27;;;;;;;3.40;3.10;;;16.30;1.00;;;;;;5903929;23;20532;-66
2021/06/09 02:11:52;;;;;;;3.13;2.50;;;16.30;1.00;;;;;;5873948;23;20192;-66
2021/06/09 02:14:19;;;;;;;3.23;2.93;;;16.30;1.00;;;;;;5845820;23;20185;-66
2021/06/09 02:16:46;;;;;;;3.13;2.83;;;16.40;1.00;;;;;;5863438;23;20583;-66
2021/06/09 02:19:13;;;;;;;3.07;2.70;;;16.30;1.00;;;;;;5853313;23;20944;-65
2021/06/09 02:21:40;;;;;;;3.33;2.65;;;16.30;1.00;;;;;;5847787;23;20396;-66
2021/06/09 02:24:07;;;;;;;3.17;2.87;;;16.20;1.00;;;;;;5864377;23;20612;-66
2021/06/09 02:26:34;;;;;;;3.17;2.90;;;16.10;1.00;;;;;;5862339;23;20400;-66
2021/06/09 02:29:07;;;;;;;4.57;2.67;;;16.10;1.00;;;;;;5849040;23;20434;-66
2021/06/09 02:31:35;;;;;;;3.70;3.40;;;16.20;1.00;;;;;;5869009;23;20157;-66
2021/06/09 02:34:01;;;;;;;3.90;3.50;;;16.10;1.00;;;;;;5844979;23;20783;-65
2021/06/09 02:36:27;;;;;;;3.43;2.60;;;16.10;1.00;;;;;;5853988;23;20998;-66
2021/06/09 02:38:53;;;;;;;3.10;2.80;;;16.20;1.00;;;;;;5846380;23;20623;-66
2021/06/09 02:41:19;;;;;;;3.30;3.10;;;16.10;1.00;;;;;;5853865;23;20788;-66
2021/06/09 02:43:46;;;;;;;5.17;3.63;;;16.10;1.00;;;;;;5847986;23;20529;-66
2021/06/09 02:46:27;;;;;;;3.80;3.50;;;16.10;1.00;;;;;;5869649;23;20160;-66
2021/06/09 02:48:58;;;;;;;6.65;3.58;;;16.20;1.00;;;;;;5853811;23;20596;-66
2021/06/09 02:51:35;;;;;;;3.35;2.75;;;16.20;1.00;;;;;;5830059;23;20614;-66
2021/06/09 02:54:29;;;;;;;4.83;3.20;;;16.20;99.90;;;;;;5885578;23;20181;-66
2021/06/09 02:57:18;;;;;;;3.97;3.58;;;16.10;1.00;;;;;;5883404;23;20673;-66
2021/06/09 03:00:08;;;;;;;3.38;3.08;;;16.10;99.90;;;;;;5867264;23;20612;-66
2021/06/09 03:02:38;;;;;;;3.20;2.67;;;16.10;99.90;;;;;;5839138;23;20818;-66
2021/06/09 03:05:25;;;;;;;2.88;2.67;;;16.20;99.90;;;;;;5819866;23;21299;-66
2021/06/09 03:07:51;;;;;;;5.32;3.50;;;16.30;99.90;;;;;;5857131;23;20137;-66
2021/06/09 03:10:39;;;;;;;4.20;3.20;;;16.30;99.90;;;;;;5808579;23;20587;-66
2021/06/09 03:13:15;;;;;;;4.45;2.95;;;16.30;99.90;;;;;;5838939;23;20572;-66
2021/06/09 03:15:50;;;;;;;2.73;2.37;;;16.20;99.90;;;;;;5838702;23;20460;-66
2021/06/09 03:18:20;;;;;;;3.87;2.77;;;16.10;99.90;;;;;;5825145;23;20387;-65
2021/06/09 03:20:58;;;;;;;3.00;2.65;;;16.00;99.90;;;;;;5862201;23;20792;-66
2021/06/09 03:23:56;;;;;;;4.03;3.10;;;16.00;99.90;;;;;;5865975;23;20493;-65
2021/06/09 03:26:28;;;;;;;3.40;3.10;;;16.10;99.90;;;;;;5877836;23;20195;-66
2021/06/09 03:29:07;;;;;;;3.00;2.70;;;16.20;99.90;;;;;;5874668;23;20141;-66
2021/06/09 03:31:48;;;;;;;2.80;2.60;;;16.30;99.90;;;;;;5861355;23;20584;-66
2021/06/09 03:34:22;;;;;;;4.97;2.90;;;16.30;99.90;;;;;;5828068;23;20489;-65
2021/06/09 03:36:50;;;;;;;2.80;2.60;;;16.40;99.90;;;;;;5832641;23;20655;-66
2021/06/09 03:39:20;;;;;;;3.23;2.90;;;16.50;1.00;;;;;;5830485;23;20399;-66
2021/06/09 03:41:53;;;;;;;3.53;2.70;;;16.60;1.00;;;;;;5814052;23;20822;-66
2021/06/09 03:44:28;;;;;;;3.70;3.00;;;16.60;1.00;;;;;;5834303;23;20176;-66
2021/06/09 03:46:56;;;;;;;3.38;3.03;;;16.60;1.00;;;;;;5865118;23;20821;-65
2021/06/09 03:49:24;;;;;;;3.10;2.80;;;16.70;1.00;;;;;;5827512;23;20618;-66
2021/06/09 03:51:50;;;;;;;2.73;2.53;;;16.70;1.00;;;;;;5855654;23;21199;-66
2021/06/09 03:54:18;;;;;;;3.23;3.03;;;16.90;1.00;;;;;;5832655;23;20431;-66
2021/06/09 03:56:46;;;;;;;5.50;3.00;;;17.00;1.00;;;;;;5868691;23;20404;-66
2021/06/09 03:59:13;;;;;;;3.47;3.17;;;17.40;1.00;;;;;;5866798;23;21498;-66
2021/06/09 04:01:40;;;;;;;4.23;3.10;;;18.90;1.00;;;;;;5845970;23;20921;-66
2021/06/09 04:04:08;;;;;;;5.10;2.90;;;21.20;1.00;;;;;;5820920;23;20896;-66
2021/06/09 04:06:38;;;;;;;3.80;2.40;;;23.40;1.00;;;;;;5824126;23;20400;-67
2021/06/09 04:09:06;;;;;;;3.80;2.80;;;24.60;1.00;;;;;;5821808;23;21258;-66
2021/06/09 04:11:33;;;;;;;2.63;2.43;;;25.70;1.00;;;;;;5804476;23;20479;-66
2021/06/09 04:13:59;;;;;;;2.73;2.20;;;26.40;1.00;;;;;;5826371;23;20427;-66
2021/06/09 04:16:29;;;;;;;2.53;2.33;;;27.00;1.00;;;;;;5867599;23;21195;-67
2021/06/09 04:18:55;;;;;;;2.87;2.20;;;27.40;1.00;;;;;;5830013;23;20409;-66
2021/06/09 04:21:21;;;;;;;2.60;2.40;;;28.20;1.00;;;;;;5821907;23;20790;-66
2021/06/09 04:23:47;;;;;;;3.77;2.60;;;28.90;1.00;;;;;;5863727;23;20849;-66
2021/06/09 04:26:16;;;;;;;2.93;2.73;;;29.30;1.00;;;;;;5861916;23;20153;-66
2021/06/09 04:28:46;;;;;;;2.73;2.53;;;29.70;1.00;;;;;;5890888;23;20294;-67
2021/06/09 04:31:13;;;;;;;3.00;2.70;;;29.50;1.00;;;;;;5850497;23;20875;-67
2021/06/09 04:33:39;;;;;;;2.53;2.30;;;29.80;1.00;;;;;;5832066;23;20502;-67
2021/06/09 04:36:15;;;;;;;3.17;2.53;;;30.40;1.00;;;;;;5815368;23;20719;-67
2021/06/09 04:38:41;;;;;;;3.90;2.87;;;30.60;1.00;;;;;;5797148;23;20215;-67
2021/06/09 04:41:08;;;;;;;6.97;2.93;;;30.50;1.00;;;;;;5788406;23;20716;-67
2021/06/09 04:43:34;;;;;;;6.67;3.43;;;30.00;1.00;;;;;;5833651;23;20423;-67
2021/06/09 04:46:00;;;;;;;3.43;3.13;;;30.40;1.00;;;;;;5874031;23;21111;-67
2021/06/09 04:48:26;;;;;;;5.30;3.27;;;30.80;1.00;;;;;;5872487;23;20843;-67
2021/06/09 04:50:52;;;;;;;6.87;3.20;;;30.30;1.00;;;;;;5848588;23;20193;-67
2021/06/09 04:53:20;;;;;;;6.20;3.73;;;30.50;1.00;;;;;;5826731;23;20820;-67
2021/06/09 04:55:52;;;;;;;4.43;3.80;;;31.50;1.00;;;;;;5840760;23;20450;-64
2021/06/09 04:58:20;;;;;;;3.77;3.10;;;32.30;1.00;;;;;;5831993;23;20453;-67
2021/06/09 05:00:47;;;;;;;6.40;3.67;;;32.80;1.00;;;;;;5808466;23;20446;-67
2021/06/09 05:03:13;;;;;;;4.10;3.17;;;32.60;1.00;;;;;;5827029;23;20802;-67
2021/06/09 05:05:38;;;;;;;8.80;4.40;;;30.40;1.00;;;;;;5858304;23;20391;-67
2021/06/09 05:08:05;;;;;;;5.13;2.80;;;29.80;1.00;;;;;;5855617;23;20388;-67
2021/06/09 05:10:33;;;;;;;3.33;3.00;;;30.50;1.00;;;;;;5814291;23;20828;-67
2021/06/09 05:13:20;;;;;;;3.77;2.63;;;31.20;1.00;;;;;;5827130;23;20848;-67
2021/06/09 05:15:59;;;;;;;2.30;2.10;;;31.10;1.00;;;;;;5834320;23;20794;-66
2021/06/09 05:18:29;;;;;;;2.70;1.90;;;31.10;1.00;;;;;;5828558;23;20387;-67
2021/06/09 05:20:55;;;;;;;2.40;2.20;;;32.40;1.00;;;;;;5817999;23;20376;-66
2021/06/09 05:23:27;;;;;;;13.97;12.97;;;32.10;1.00;;;;;;5828998;23;20395;-66
2021/06/09 05:25:55;;;;;;;3.37;3.07;;;31.20;1.00;;;;;;5821320;23;20163;-66
2021/06/09 05:28:24;;;;;;;2.30;2.03;;;30.70;1.00;;;;;;5799208;23;20392;-67
2021/06/09 05:30:54;;;;;;;2.47;2.23;;;30.10;1.00;;;;;;5788040;23;20955;-66
2021/06/09 05:33:21;;;;;;;1.90;1.70;;;30.90;1.00;;;;;;5837949;23;20996;-66
2021/06/09 05:35:51;;;;;;;2.40;1.90;;;31.20;1.00;;;;;;5832800;23;20415;-65
2021/06/09 05:38:19;;;;;;;2.10;1.70;;;31.00;1.00;;;;;;5861662;23;21185;-68
2021/06/09 05:40:45;;;;;;;2.27;1.77;;;31.10;1.00;;;;;;5852406;23;20921;-65
2021/06/09 05:43:10;;;;;;;1.70;1.60;;;31.20;1.00;;;;;;5825638;23;20811;-66
2021/06/09 05:45:37;;;;;;;2.10;1.73;;;32.00;1.00;;;;;;5823945;23;21292;-66
2021/06/09 05:48:04;;;;;;;2.13;1.93;;;32.70;1.00;;;;;;5817088;23;20674;-66
2021/06/09 05:50:31;;;;;;;3.60;1.70;;;32.50;1.00;;;;;;5803100;23;20399;-66
2021/06/09 05:52:59;;;;;;;3.13;2.13;;;32.50;1.00;;;;;;5872436;23;20887;-66
2021/06/09 05:55:27;;;;;;;6.13;2.30;;;33.20;1.00;;;;;;5807021;23;20747;-66
2021/06/09 05:57:55;;;;;;;4.57;2.60;;;33.70;1.00;;;;;;5800389;23;20392;-67
2021/06/09 06:00:24;;;;;;;4.07;2.80;;;33.50;1.00;;;;;;5827139;23;20384;-67
2021/06/09 06:02:51;;;;;;;11.43;3.20;;;33.10;1.00;;;;;;5830500;23;20403;-67
2021/06/09 06:05:17;;;;;;;4.50;2.53;;;33.80;1.00;;;;;;5878426;23;20391;-66
2021/06/09 06:07:44;;;;;;;3.63;2.83;;;34.30;1.00;;;;;;5819964;23;20838;-67
2021/06/09 06:10:11;;;;;;;2.87;2.37;;;33.70;1.00;;;;;;5831399;23;20880;-67
2021/06/09 06:12:37;;;;;;;4.50;2.37;;;33.10;1.00;;;;;;5863610;23;20380;-67
2021/06/09 06:15:06;;;;;;;4.23;2.67;;;34.40;1.00;;;;;;5827904;23;20432;-72
2021/06/09 06:17:31;;;;;;;3.90;2.00;;;35.10;1.00;;;;;;5824995;23;20404;-67
2021/06/09 06:19:58;;;;;;;2.20;1.77;;;36.30;1.00;;;;;;5812136;23;20400;-68
2021/06/09 06:22:24;;;;;;;2.73;1.93;;;37.30;1.00;;;;;;5859621;23;20629;-68
2021/06/09 06:24:50;;;;;;;3.60;1.67;;;37.40;1.00;;;;;;5832704;23;20971;-68
2021/06/09 06:27:19;;;;;;;2.23;1.90;;;37.30;1.00;;;;;;5885424;23;20826;-63
2021/06/09 06:29:46;;;;;;;1.67;1.57;;;36.90;1.00;;;;;;5828341;23;20933;-64
2021/06/09 06:32:13;;;;;;;4.97;1.20;;;37.10;1.00;;;;;;5800971;23;20407;-64
2021/06/09 06:34:46;;;;;;;1.40;1.30;;;36.60;1.00;;;;;;5854358;23;20827;-71
2021/06/09 06:37:14;;;;;;;1.80;1.10;;;34.70;1.00;;;;;;5793488;23;20396;-74
2021/06/09 06:39:42;;;;;;;3.60;1.50;;;33.50;1.00;;;;;;5799225;23;20929;-70
2021/06/09 06:42:09;;;;;;;6.83;1.60;;;32.40;1.00;;;;;;5822266;23;20396;-68
2021/06/09 06:44:38;;;;;;;1.67;1.10;;;32.80;1.00;;;;;;5843516;23;20812;-69
2021/06/09 06:47:04;;;;;;;1.60;1.50;;;32.60;1.00;;;;;;5822074;23;20400;-69
2021/06/09 06:49:30;;;;;;;1.33;1.20;;;33.30;1.00;;;;;;5822760;23;20689;-68
2021/06/09 06:51:57;;;;;;;1.57;1.10;;;34.10;1.00;;;;;;5827390;23;20172;-69
2021/06/09 06:54:24;;;;;;;2.80;1.47;;;34.60;1.00;;;;;;5838284;23;20510;-68
2021/06/09 06:56:54;;;;;;;1.50;1.37;;;34.90;1.00;;;;;;5828134;23;20800;-67
2021/06/09 06:59:21;;;;;;;1.43;1.33;;;35.40;1.00;;;;;;5826431;23;20928;-67
2021/06/09 07:01:48;;;;;;;1.40;1.30;;;35.40;1.00;;;;;;5808679;23;20392;-67
2021/06/09 07:04:16;;;;;;;1.93;1.00;;;35.20;1.00;;;;;;5862645;23;20533;-69
2021/06/09 07:06:46;;;;;;;2.17;1.30;;;34.70;1.00;;;;;;5817636;23;21646;-70
2021/06/09 07:09:14;;;;;;;2.30;1.60;;;34.40;1.00;;;;;;5773690;23;20899;-67
2021/06/09 07:11:43;;;;;;;1.30;1.20;;;33.60;1.00;;;;;;5761120;23;20865;-69
2021/06/09 07:14:09;;;;;;;1.87;1.37;;;32.60;1.00;;;;;;5784673;23;21034;-69
2021/06/09 07:16:37;;;;;;;5.10;1.50;;;31.20;1.00;;;;;;5757934;23;20482;-67
2021/06/09 07:19:05;;;;;;;1.97;1.60;;;30.80;1.00;;;;;;5773995;23;20874;-68
2021/06/09 07:21:32;;;;;;;1.63;1.23;;;30.30;1.00;;;;;;5803518;23;20848;-65
2021/06/09 07:23:59;;;;;;;2.53;1.83;;;30.30;1.00;;;;;;5831390;23;20431;-65
2021/06/09 07:26:28;;;;;;;1.87;1.33;;;31.10;1.00;;;;;;5833427;23;21247;-64
2021/06/09 07:28:57;;;;;;;2.30;1.30;;;30.00;1.00;;;;;;5782148;23;20399;-64
2021/06/09 07:31:32;;;;;;;1.43;1.20;;;29.50;1.00;;;;;;5784181;23;20973;-65
2021/06/09 07:33:58;;;;;;;2.83;1.60;;;29.80;1.00;;;;;;5786747;23;20628;-64
2021/06/09 07:36:30;;;;;;;2.10;1.57;;;28.70;1.00;;;;;;5755599;23;20837;-64
2021/06/09 07:39:24;;;;;;;1.83;1.73;;;27.70;1.00;;;;;;5789333;23;21243;-66
2021/06/09 07:41:52;;;;;;;2.10;1.70;;;27.50;1.00;;;;;;5731767;23;20395;-66
2021/06/09 07:44:20;;;;;;;2.13;1.50;;;26.40;1.00;;;;;;5802944;23;20842;-67
2021/06/09 07:46:47;;;;;;;1.27;1.10;;;26.00;1.00;;;;;;5759270;23;20395;-66
2021/06/09 07:49:14;;;;;;;2.23;1.30;;;26.20;1.00;;;;;;5762390;23;20753;-67
2021/06/09 07:51:42;;;;;;;3.10;1.70;;;26.10;1.00;;;;;;5796596;23;20410;-67
2021/06/09 07:54:10;;;;;;;1.80;1.60;;;26.70;1.00;;;;;;5701520;23;20435;-67
2021/06/09 07:56:40;;;;;;;2.60;1.70;;;26.30;1.00;;;;;;5754676;23;20446;-67
2021/06/09 07:59:08;;;;;;;2.40;1.53;;;26.00;1.00;;;;;;5730132;23;20411;-66
2021/06/09 08:01:35;;;;;;;2.13;1.67;;;26.30;1.00;;;;;;5758829;23;20391;-66
2021/06/09 08:04:01;;;;;;;1.90;1.70;;;26.20;1.00;;;;;;5780134;23;20404;-66
2021/06/09 08:06:27;;;;;;;1.83;1.70;;;25.70;1.00;;;;;;5830394;23;21223;-66
2021/06/09 08:08:54;;;;;;;2.23;1.80;;;25.90;1.00;;;;;;5775556;23;21066;-67
2021/06/09 08:11:21;;;;;;;2.60;1.77;;;25.80;1.00;;;;;;5811745;23;21217;-66
2021/06/09 08:13:48;;;;;;;2.37;1.80;;;26.00;1.00;;;;;;5817281;23;20897;-65
2021/06/09 08:16:17;;;;;;;2.47;1.73;;;25.70;1.00;;;;;;5816255;23;20395;-68
2021/06/09 08:18:46;;;;;;;1.73;1.63;;;25.60;1.00;;;;;;5784135;23;21269;-68
2021/06/09 08:21:24;;;;;;;2.00;1.50;;;25.80;1.00;;;;;;5821941;23;20478;-67
2021/06/09 08:23:53;;;;;;;3.00;1.70;;;25.60;1.00;;;;;;5792810;23;20906;-67
2021/06/09 08:26:21;;;;;;;2.20;2.00;;;25.60;1.00;;;;;;5782718;23;20851;-67
2021/06/09 08:28:47;;;;;;;1.30;1.20;;;25.80;1.00;;;;;;5786499;23;20911;-67
2021/06/09 08:31:17;;;;;;;4.90;2.77;;;26.00;1.00;;;;;;5774991;23;20399;-67
2021/06/09 08:33:44;;;;;;;2.00;1.70;;;26.30;1.00;;;;;;5792224;23;20368;-66
2021/06/09 08:36:14;;;;;;;4.73;2.07;;;26.60;1.00;;;;;;5792807;23;20830;-67
2021/06/09 08:38:40;;;;;;;2.63;1.60;;;26.50;1.00;;;;;;5793006;23;20932;-67
2021/06/09 08:41:08;;;;;;;3.47;2.20;;;26.90;1.00;;;;;;5794738;23;20893;-67
2021/06/09 08:43:35;;;;;;;3.83;1.40;;;27.30;1.00;;;;;;5756287;23;21122;-66
2021/06/09 08:46:03;;;;;;;4.63;1.70;;;27.40;1.00;;;;;;5737650;23;20398;-65
2021/06/09 08:48:29;;;;;;;2.03;1.83;;;27.70;1.00;;;;;;5761082;23;20789;-68
2021/06/09 08:50:57;;;;;;;1.90;1.70;;;27.60;1.00;;;;;;5723970;23;20628;-69
2021/06/09 08:53:24;;;;;;;1.53;1.43;;;27.90;1.00;;;;;;5728527;23;20387;-68
2021/06/09 08:55:50;;;;;;;2.97;1.60;;;28.20;1.00;;;;;;5748293;23;20957;-67
2021/06/09 08:58:17;;;;;;;4.00;2.20;;;28.50;1.00;;;;;;5727760;23;20442;-68
2021/06/09 09:00:44;;;;;;;5.60;1.80;;;28.40;1.00;;;;;;5771691;23;20780;-67
2021/06/09 09:03:11;;;;;;;4.33;1.70;;;28.40;1.00;;;;;;5775629;23;20794;-68
2021/06/09 09:05:37;;;;;;;5.07;4.13;;;28.30;1.00;;;;;;5805198;23;20765;-70
2021/06/09 09:08:06;;;;;;;3.70;2.20;;;28.40;1.00;;;;;;5827138;23;20829;-69
2021/06/09 09:10:33;;;;;;;2.77;2.40;;;28.30;1.00;;;;;;5763151;23;20186;-68
2021/06/09 09:13:00;;;;;;;3.40;2.00;;;27.60;1.00;;;;;;5800548;23;20936;-69
2021/06/09 09:15:26;;;;;;;5.87;1.87;;;27.40;1.00;;;;;;5727850;23;20941;-67
2021/06/09 09:17:56;;;;;;;1.97;1.77;;;27.50;1.00;;;;;;5739773;23;21211;-65
2021/06/09 09:20:27;;;;;;;2.63;1.97;;;27.80;1.00;;;;;;5722561;23;20412;-66
2021/06/09 09:22:56;;;;;;;2.27;1.90;;;27.80;1.00;;;;;;5795425;23;20779;-67
2021/06/09 09:25:22;;;;;;;3.00;2.20;;;27.90;1.00;;;;;;5772845;23;20853;-65
2021/06/09 09:27:53;;;;;;;1.60;1.50;;;27.70;1.00;;;;;;5725079;23;20773;-70
2021/06/09 09:30:21;;;;;;;2.47;1.70;;;27.50;1.00;;;;;;5727477;23;20388;-71
2021/06/09 09:33:09;;;;;;;2.27;1.80;;;27.50;1.00;;;;;;5793232;23;20791;-70
2021/06/09 09:35:36;;;;;;;3.07;1.77;;;28.00;1.00;;;;;;5739528;23;20543;-70
2021/06/09 09:38:30;;;;;;;3.30;2.20;;;28.30;1.00;;;;;;5781386;23;20391;-69
2021/06/09 09:41:05;;;;;;;2.30;1.97;;;27.80;1.00;;;;;;5807607;23;21126;-68
2021/06/09 09:43:50;;;;;;;1.80;1.60;;;27.60;1.00;;;;;;5748259;23;20379;-66
2021/06/09 09:46:23;;;;;;;3.00;2.00;;;27.50;1.00;;;;;;5741743;23;20384;-67
2021/06/09 09:49:09;;;;;;;2.20;2.00;;;27.80;1.00;;;;;;5755249;23;20718;-66
2021/06/09 09:51:36;;;;;;;2.43;2.23;;;27.80;1.00;;;;;;5804075;23;20633;-65
2021/06/09 09:54:05;;;;;;;2.53;2.00;;;28.20;1.00;;;;;;5805423;23;21266;-67
2021/06/09 09:56:32;;;;;;;2.03;1.83;;;28.70;1.00;;;;;;5798434;23;20392;-67
2021/06/09 09:59:05;;;;;;;3.07;1.90;;;28.50;1.00;;;;;;5783549;23;20396;-73
2021/06/09 10:01:39;;;;;;;5.00;3.03;;;28.30;1.00;;;;;;5795946;23;20432;-65
2021/06/09 10:04:06;;;;;;;2.50;1.77;;;28.20;1.00;;;;;;5794653;23;20567;-65
2021/06/09 10:06:40;;;;;;;2.17;1.93;;;28.30;1.00;;;;;;5807630;23;20762;-63
2021/06/09 10:09:16;;;;;;;2.20;1.80;;;28.10;1.00;;;;;;5772392;23;20381;-63
2021/06/09 10:11:48;;;;;;;2.00;1.80;;;28.50;1.00;;;;;;5730115;23;20387;-64
2021/06/09 10:14:15;;;;;;;2.83;2.63;;;28.70;1.00;;;;;;5730816;23;20793;-63
2021/06/09 10:16:41;;;;;;;2.07;1.87;;;28.60;1.00;;;;;;5743266;23;20404;-65
2021/06/09 10:19:14;;;;;;;3.30;2.00;;;28.80;1.00;;;;;;5788178;23;20419;-64
2021/06/09 10:21:44;;;;;;;2.57;2.37;;;28.70;1.00;;;;;;5774789;23;20388;-65
2021/06/09 10:24:10;;;;;;;3.30;2.20;;;28.50;1.00;;;;;;5790060;23;20790;-66
2021/06/09 10:26:41;;;;;;;2.30;2.10;;;29.10;1.00;;;;;;5796306;23;20827;-66
2021/06/09 10:29:18;;;;;;;3.60;2.60;;;29.30;1.00;;;;;;5818567;23;20368;-66
2021/06/09 10:31:49;;;;;;;2.40;2.20;;;29.60;1.00;;;;;;5792802;23;20386;-66
2021/06/09 10:34:15;;;;;;;3.57;2.60;;;30.00;1.00;;;;;;5795313;23;20846;-71
2021/06/09 10:36:46;;;;;;;4.37;3.10;;;30.30;1.00;;;;;;5788169;23;20819;-65
2021/06/09 10:39:14;;;;;;;5.53;3.17;;;29.80;1.00;;;;;;5829995;23;20559;-65
2021/06/09 10:41:43;;;;;;;3.10;2.80;;;29.20;1.00;;;;;;5822708;23;21454;-66
2021/06/09 10:44:09;;;;;;;7.10;2.90;;;29.10;1.00;;;;;;5793915;23;20411;-67
2021/06/09 10:46:40;;;;;;;5.70;4.30;;;29.10;1.00;;;;;;5786368;23;20701;-65
2021/06/09 10:49:06;;;;;;;13.53;3.90;;;29.20;1.00;;;;;;5774239;23;20923;-66
2021/06/09 10:51:33;;;;;;;3.57;3.20;;;29.20;1.00;;;;;;5794501;23;20899;-66
2021/06/09 10:54:02;;;;;;;3.73;3.30;;;29.30;1.00;;;;;;5823314;23;20726;-66
2021/06/09 10:56:29;;;;;;;6.33;3.77;;;29.70;1.00;;;;;;5820132;23;20863;-66
2021/06/09 10:58:54;;;;;;;4.20;3.50;;;29.50;1.00;;;;;;5758117;23;20761;-64
2021/06/09 11:01:25;;;;;;;3.67;3.27;;;28.70;1.00;;;;;;5765630;23;20412;-63
2021/06/09 11:03:54;;;;;;;5.30;3.90;;;28.30;1.00;;;;;;5774893;23;20161;-63
2021/06/09 11:06:34;;;;;;;5.53;3.77;;;28.30;1.00;;;;;;5777705;23;21480;-67
2021/06/09 11:09:20;;;;;;;3.57;3.27;;;28.30;1.00;;;;;;5782139;23;21283;-63
2021/06/09 11:12:08;;;;;;;6.67;3.60;;;28.50;1.00;;;;;;5855700;23;21045;-63
2021/06/09 11:14:45;;;;;;;4.90;3.67;;;28.70;1.00;;;;;;5812877;23;20424;-63
2021/06/09 11:17:11;;;;;;;4.10;3.70;;;28.60;1.00;;;;;;5861780;23;20363;-65
2021/06/09 11:19:41;;;;;;;3.90;3.60;;;28.50;1.00;;;;;;5825083;23;20818;-64
2021/06/09 11:22:22;;;;;;;4.23;3.87;;;28.30;1.00;;;;;;5847937;23;20849;-65
2021/06/09 11:25:15;;;;;;;5.50;3.80;;;28.50;1.00;;;;;;5863129;23;20473;-65
2021/06/09 11:27:55;;;;;;;4.13;3.70;;;28.90;1.00;;;;;;5824854;23;20472;-62
2021/06/09 11:30:35;;;;;;;4.57;4.23;;;28.60;1.00;;;;;;5818403;23;20423;-66
2021/06/09 11:33:04;;;;;;;3.53;3.23;;;28.90;1.00;;;;;;5843242;23;20388;-67
2021/06/09 11:35:44;;;;;;;4.90;3.43;;;29.10;1.00;;;;;;5866175;23;21000;-67
2021/06/09 11:38:18;;;;;;;4.30;3.93;;;28.80;1.00;;;;;;5869102;23;20466;-67
2021/06/09 11:41:01;;;;;;;4.17;3.77;;;28.60;1.00;;;;;;5853665;23;20688;-64
2021/06/09 11:43:34;;;;;;;3.60;3.30;;;28.90;1.00;;;;;;5812812;23;20475;-64
2021/06/09 11:46:10;;;;;;;3.50;3.20;;;29.60;1.00;;;;;;5816161;23;21236;-64
2021/06/09 11:48:38;;;;;;;4.20;3.90;;;29.90;1.00;;;;;;5832617;23;20783;-64
2021/06/09 11:51:35;;;;;;;4.60;4.17;;;30.10;1.00;;;;;;5840865;23;20398;-65
2021/06/09 11:54:32;;;;;;;3.87;3.57;;;29.60;1.00;;;;;;5867024;23;20842;-67
2021/06/09 11:57:03;;;;;;;3.70;3.40;;;29.60;1.00;;;;;;5866139;23;20757;-67
2021/06/09 11:59:33;;;;;;;5.30;4.80;;;29.10;1.00;;;;;;5863331;23;20835;-66
2021/06/09 12:02:05;;;;;;;4.10;3.70;;;28.80;1.00;;;;;;5862669;23;21004;-66
2021/06/09 12:04:38;;;;;;;5.97;3.50;;;28.50;1.00;;;;;;5867339;23;20764;-66
2021/06/09 12:07:10;;;;;;;4.10;3.80;;;28.80;1.00;;;;;;5878263;23;20404;-67
2021/06/09 12:09:45;;;;;;;3.93;3.53;;;28.30;1.00;;;;;;5875423;23;20376;-65
2021/06/09 12:32:44;;;;;;;3.73;3.43;;;29.10;1.00;;;;;;6225343;23;20830;-67
2021/06/09 14:13:32;;;;;;;4.83;4.33;;;28.00;1.00;;;;;;6070971;23;20644;-68
2021/06/09 14:16:00;;;;;;;4.33;4.03;;;28.70;1.00;;;;;;6166913;23;20430;-67
2021/06/09 14:18:36;;;;;;;5.73;4.40;;;28.30;1.00;;;;;;6161234;23;20413;-66
2021/06/09 14:21:03;;;;;;;6.83;4.10;;;28.20;1.00;;;;;;6166825;23;20416;-66
2021/06/09 14:23:38;;;;;;;6.50;3.90;;;28.10;1.00;;;;;;6166541;23;20396;-66
2021/06/09 14:26:07;;;;;;;4.40;4.10;;;27.40;1.00;;;;;;6167314;23;20382;-67
2021/06/09 14:28:35;;;;;;;5.20;4.77;;;27.50;1.00;;;;;;6180017;23;20401;-67
2021/06/09 14:31:09;;;;;;;4.60;4.30;;;27.20;1.00;;;;;;6168313;23;20677;-68
2021/06/09 14:36:26;;;;;;;5.53;4.17;;;26.60;1.00;;;;;;6166408;23;20374;-68
2021/06/09 14:38:51;;;;;;;5.50;5.00;;;26.70;1.00;;;;;;6179490;23;20387;-70
2021/06/09 14:41:36;;;;;;;5.03;4.60;;;27.00;1.00;;;;;;6166670;23;20729;-68
2021/06/09 14:44:34;;;;;;;4.93;4.40;;;26.90;1.00;;;;;;6166130;23;20150;-67
2021/06/09 14:47:18;;;;;;;5.20;4.70;;;26.90;1.00;;;;;;6155181;23;20393;-69
2021/06/09 14:49:45;;;;;;;4.63;4.20;;;26.70;1.00;;;;;;6179947;23;20813;-70
2021/06/09 14:52:20;;;;;;;5.27;4.50;;;26.70;1.00;;;;;;6166173;23;20390;-70
2021/06/09 14:54:48;;;;;;;7.00;4.80;;;26.20;1.00;;;;;;6166321;23;20488;-69
2021/06/09 14:57:14;;;;;;;4.60;4.20;;;25.90;1.00;;;;;;6154788;23;20393;-69
2021/06/09 14:59:49;;;;;;;5.73;5.00;;;26.10;1.00;;;;;;6165990;23;20694;-68
2021/06/09 15:02:16;;;;;;;5.77;5.17;;;26.50;1.00;;;;;;6166104;23;20392;-68
2021/06/09 15:04:41;;;;;;;5.17;4.67;;;26.70;1.00;;;;;;6165788;23;20645;-67
2021/06/09 15:07:07;;;;;;;5.10;4.40;;;26.80;1.00;;;;;;6165796;23;20398;-68
2021/06/09 15:09:33;;;;;;;5.00;4.33;;;26.60;1.00;;;;;;6165846;23;20195;-68
2021/06/09 15:11:59;;;;;;;4.53;4.13;;;27.00;1.00;;;;;;6166004;23;20154;-67